Venetiko — D5DR5 — position and weather

sailwx.info

Track history (hours):
 
Tides and Currents Weather Stations Pressure Air Temp Water Temp Dewpoint Dewpoint Depression Visibility Wind Speed Wind Dir Waves Ship Positions

Venetiko

Last reported at 2017-Nov-17 04:30 UTC. Time now 2017-Nov-18 17:23 UTC.
Position N 25°17' W 079°45'.

Length 280 m; draft 12.7 m.

Type: Ship (hazmat cat D). MMSI: 636015952.

Date/timePositionNaut miles runAvg speedWind from/ knotsBaromVisibWave heightAir tempDewpointWater temp
2017-Nov-17 04:30N 25°17' W 079°45'817.4
2017-Nov-17 04:00N 25°25' W 079°50'816.7
2017-Nov-17 03:30N 25°32' W 079°54'917.4
2017-Nov-17 03:01N 25°39' W 079°59'814.9
2017-Nov-17 02:30N 25°45' W 080°04'4 7.9
2017-Nov-17 02:00N 25°46' W 080°09'0 0.9
2017-Nov-17 01:30N 25°46' W 080°09'0 0.0
2017-Nov-17 01:00N 25°46' W 080°09'0 0.0
2017-Nov-17 00:30N 25°46' W 080°09'0 0.0
2017-Nov-17 00:00N 25°46' W 080°09'0 0.0
2017-Nov-16 23:30N 25°46' W 080°09'0 0.0
2017-Nov-16 23:00N 25°46' W 080°09'0 0.0
2017-Nov-16 22:30N 25°46' W 080°09'0 0.0
2017-Nov-16 22:00N 25°46' W 080°09'0 0.0
2017-Nov-16 21:30N 25°46' W 080°09'0 0.0
2017-Nov-16 21:00N 25°46' W 080°09'0 0.0
2017-Nov-16 20:30N 25°46' W 080°09'0 0.0
2017-Nov-16 20:00N 25°46' W 080°09'0 0.0
2017-Nov-16 19:30N 25°46' W 080°09'0 0.0
2017-Nov-16 19:00N 25°46' W 080°09'0 0.0
2017-Nov-16 18:30N 25°46' W 080°09'0 0.0
2017-Nov-16 18:00N 25°46' W 080°09'0 0.0
2017-Nov-16 17:30N 25°46' W 080°09'0 0.0
2017-Nov-16 17:00N 25°46' W 080°09'0 0.0
2017-Nov-16 16:30N 25°46' W 080°09'0 0.0
2017-Nov-16 16:00N 25°46' W 080°09'0 0.0
2017-Nov-16 15:30N 25°46' W 080°09'0 0.0
2017-Nov-16 15:00N 25°46' W 080°09'0 0.0
2017-Nov-16 14:30N 25°46' W 080°09'0 0.0
2017-Nov-16 14:00N 25°46' W 080°09'0 0.0
2017-Nov-16 13:30N 25°46' W 080°09'0 1.0
2017-Nov-16 13:00N 25°46' W 080°09'2 4.2
2017-Nov-16 12:30N 25°46' W 080°06'5 9.0
2017-Nov-16 12:00N 25°46' W 080°01'4 7.5
2017-Nov-16 11:30N 25°43' W 079°58'4 7.7
2017-Nov-16 11:00N 25°40' W 079°56'4 7.6
2017-Nov-16 10:30N 25°37' W 079°52'4 8.4
2017-Nov-16 10:00N 25°35' W 079°49'1 1.7
2017-Nov-16 09:30N 25°34' W 079°49'5 9.2
2017-Nov-16 09:00N 25°30' W 079°46'917.5
2017-Nov-16 08:30N 25°23' W 079°40'  
Track history (hours):
 
Tides and Currents Weather Stations Pressure Air Temp Water Temp Dewpoint Dewpoint Depression Visibility Wind Speed Wind Dir Waves Ship Positions

Venetiko

Last reported at 2017-Nov-17 04:30 UTC. Time now 2017-Nov-18 17:23 UTC.
Position N 25°17' W 079°45'.

Length 280 m; draft 12.7 m.

Type: Ship (hazmat cat D). MMSI: 636015952.

Date/timePositionNaut miles runAvg speedWind from/ knotsBaromVisibWave heightAir tempDewpointWater temp
2017-Nov-17 04:30N 25°17' W 079°45'817.4
2017-Nov-17 04:00N 25°25' W 079°50'816.7
2017-Nov-17 03:30N 25°32' W 079°54'917.4
2017-Nov-17 03:01N 25°39' W 079°59'814.9
2017-Nov-17 02:30N 25°45' W 080°04'4 7.9
2017-Nov-17 02:00N 25°46' W 080°09'0 0.9
2017-Nov-17 01:30N 25°46' W 080°09'0 0.0
2017-Nov-17 01:00N 25°46' W 080°09'0 0.0
2017-Nov-17 00:30N 25°46' W 080°09'0 0.0
2017-Nov-17 00:00N 25°46' W 080°09'0 0.0
2017-Nov-16 23:30N 25°46' W 080°09'0 0.0
2017-Nov-16 23:00N 25°46' W 080°09'0 0.0
2017-Nov-16 22:30N 25°46' W 080°09'0 0.0
2017-Nov-16 22:00N 25°46' W 080°09'0 0.0
2017-Nov-16 21:30N 25°46' W 080°09'0 0.0
2017-Nov-16 21:00N 25°46' W 080°09'0 0.0
2017-Nov-16 20:30N 25°46' W 080°09'0 0.0
2017-Nov-16 20:00N 25°46' W 080°09'0 0.0
2017-Nov-16 19:30N 25°46' W 080°09'0 0.0
2017-Nov-16 19:00N 25°46' W 080°09'0 0.0
2017-Nov-16 18:30N 25°46' W 080°09'0 0.0
2017-Nov-16 18:00N 25°46' W 080°09'0 0.0
2017-Nov-16 17:30N 25°46' W 080°09'0 0.0
2017-Nov-16 17:00N 25°46' W 080°09'0 0.0
2017-Nov-16 16:30N 25°46' W 080°09'0 0.0
2017-Nov-16 16:00N 25°46' W 080°09'0 0.0
2017-Nov-16 15:30N 25°46' W 080°09'0 0.0
2017-Nov-16 15:00N 25°46' W 080°09'0 0.0
2017-Nov-16 14:30N 25°46' W 080°09'0 0.0
2017-Nov-16 14:00N 25°46' W 080°09'0 0.0
2017-Nov-16 13:30N 25°46' W 080°09'0 1.0
2017-Nov-16 13:00N 25°46' W 080°09'2 4.2
2017-Nov-16 12:30N 25°46' W 080°06'5 9.0
2017-Nov-16 12:00N 25°46' W 080°01'4 7.5
2017-Nov-16 11:30N 25°43' W 079°58'4 7.7
2017-Nov-16 11:00N 25°40' W 079°56'4 7.6
2017-Nov-16 10:30N 25°37' W 079°52'4 8.4
2017-Nov-16 10:00N 25°35' W 079°49'1 1.7
2017-Nov-16 09:30N 25°34' W 079°49'5 9.2
2017-Nov-16 09:00N 25°30' W 079°46'917.5
2017-Nov-16 08:30N 25°23' W 079°40'  

Dump ship's entire track history